sensor_id;sensor_type;location;lat;lon;timestamp;pressure;altitude;pressure_sealevel;temperature;humidity
33859;BME280;20156;47.486;12.074;2022-07-17T00:02:23;96179.56;;;16.16;100.00
33859;BME280;20156;47.486;12.074;2022-07-17T00:04:49;96178.00;;;16.08;100.00
33859;BME280;20156;47.486;12.074;2022-07-17T00:07:14;96183.09;;;16.28;100.00
33859;BME280;20156;47.486;12.074;2022-07-17T00:09:40;96183.16;;;15.90;100.00
33859;BME280;20156;47.486;12.074;2022-07-17T00:12:05;96179.66;;;15.71;100.00
33859;BME280;20156;47.486;12.074;2022-07-17T00:14:31;96179.72;;;15.64;100.00
33859;BME280;20156;47.486;12.074;2022-07-17T00:16:56;96188.50;;;15.77;100.00
33859;BME280;20156;47.486;12.074;2022-07-17T00:19:24;96183.34;;;15.57;100.00
33859;BME280;20156;47.486;12.074;2022-07-17T00:21:49;96181.41;;;15.84;100.00
33859;BME280;20156;47.486;12.074;2022-07-17T00:24:15;96179.50;;;15.98;100.00
33859;BME280;20156;47.486;12.074;2022-07-17T00:26:46;96177.66;;;15.67;100.00
33859;BME280;20156;47.486;12.074;2022-07-17T00:29:12;96179.38;;;15.41;100.00
33859;BME280;20156;47.486;12.074;2022-07-17T00:31:37;96184.59;;;15.48;100.00
33859;BME280;20156;47.486;12.074;2022-07-17T00:34:02;96186.38;;;15.60;100.00
33859;BME280;20156;47.486;12.074;2022-07-17T00:36:28;96184.69;;;15.73;100.00
33859;BME280;20156;47.486;12.074;2022-07-17T00:38:54;96185.66;;;15.33;100.00
33859;BME280;20156;47.486;12.074;2022-07-17T00:41:19;96194.00;;;15.17;100.00
33859;BME280;20156;47.486;12.074;2022-07-17T00:43:46;96181.88;;;15.29;100.00
33859;BME280;20156;47.486;12.074;2022-07-17T00:46:11;96191.13;;;15.32;100.00
33859;BME280;20156;47.486;12.074;2022-07-17T00:48:36;96189.19;;;15.66;100.00
33859;BME280;20156;47.486;12.074;2022-07-17T00:51:02;96188.69;;;15.37;100.00
33859;BME280;20156;47.486;12.074;2022-07-17T00:53:28;96193.28;;;15.42;100.00
33859;BME280;20156;47.486;12.074;2022-07-17T00:55:57;96193.91;;;15.37;100.00
33859;BME280;20156;47.486;12.074;2022-07-17T00:58:25;96187.38;;;15.66;100.00
33859;BME280;20156;47.486;12.074;2022-07-17T01:00:53;96180.97;;;15.42;100.00
33859;BME280;20156;47.486;12.074;2022-07-17T01:03:22;96191.94;;;15.26;100.00
33859;BME280;20156;47.486;12.074;2022-07-17T01:05:48;96180.53;;;15.52;100.00
33859;BME280;20156;47.486;12.074;2022-07-17T01:08:13;96185.41;;;15.48;100.00
33859;BME280;20156;47.486;12.074;2022-07-17T01:10:40;96195.50;;;15.45;100.00
33859;BME280;20156;47.486;12.074;2022-07-17T01:13:06;96190.75;;;15.28;100.00
33859;BME280;20156;47.486;12.074;2022-07-17T01:15:33;96188.59;;;15.12;100.00
33859;BME280;20156;47.486;12.074;2022-07-17T01:18:08;96193.63;;;15.07;100.00
33859;BME280;20156;47.486;12.074;2022-07-17T01:20:39;96203.09;;;15.15;100.00
33859;BME280;20156;47.486;12.074;2022-07-17T01:23:05;96201.38;;;15.40;100.00
33859;BME280;20156;47.486;12.074;2022-07-17T01:25:31;96208.88;;;15.30;100.00
33859;BME280;20156;47.486;12.074;2022-07-17T01:27:57;96210.06;;;15.34;100.00
33859;BME280;20156;47.486;12.074;2022-07-17T01:30:23;96212.09;;;15.25;100.00
33859;BME280;20156;47.486;12.074;2022-07-17T01:32:49;96216.00;;;15.10;100.00
33859;BME280;20156;47.486;12.074;2022-07-17T01:35:15;96211.00;;;14.95;100.00
33859;BME280;20156;47.486;12.074;2022-07-17T01:37:42;96213.28;;;14.45;100.00
33859;BME280;20156;47.486;12.074;2022-07-17T01:40:12;96212.25;;;14.59;100.00
33859;BME280;20156;47.486;12.074;2022-07-17T01:42:41;96213.47;;;14.57;100.00
33859;BME280;20156;47.486;12.074;2022-07-17T01:45:07;96215.66;;;14.73;100.00
33859;BME280;20156;47.486;12.074;2022-07-17T01:47:33;96209.22;;;14.82;100.00
33859;BME280;20156;47.486;12.074;2022-07-17T01:50:00;96210.16;;;15.08;100.00
33859;BME280;20156;47.486;12.074;2022-07-17T01:52:26;96217.09;;;14.69;100.00
33859;BME280;20156;47.486;12.074;2022-07-17T01:54:52;96214.28;;;14.70;100.00
33859;BME280;20156;47.486;12.074;2022-07-17T01:57:18;96215.72;;;14.47;100.00
33859;BME280;20156;47.486;12.074;2022-07-17T01:59:43;96220.13;;;14.53;100.00
33859;BME280;20156;47.486;12.074;2022-07-17T02:02:09;96223.94;;;14.57;100.00
33859;BME280;20156;47.486;12.074;2022-07-17T02:04:36;96225.13;;;14.74;100.00
33859;BME280;20156;47.486;12.074;2022-07-17T02:07:02;96227.56;;;14.69;100.00
33859;BME280;20156;47.486;12.074;2022-07-17T02:09:28;96221.72;;;14.73;100.00
33859;BME280;20156;47.486;12.074;2022-07-17T02:11:54;96213.88;;;14.54;100.00
33859;BME280;20156;47.486;12.074;2022-07-17T02:14:19;96223.16;;;14.50;100.00
33859;BME280;20156;47.486;12.074;2022-07-17T02:16:45;96218.13;;;14.48;100.00
33859;BME280;20156;47.486;12.074;2022-07-17T02:19:10;96219.09;;;14.80;100.00
33859;BME280;20156;47.486;12.074;2022-07-17T02:21:36;96217.50;;;14.59;100.00
33859;BME280;20156;47.486;12.074;2022-07-17T02:24:02;96212.25;;;14.20;100.00
33859;BME280;20156;47.486;12.074;2022-07-17T02:26:27;96212.66;;;14.36;100.00
33859;BME280;20156;47.486;12.074;2022-07-17T02:28:52;96219.72;;;14.56;100.00
33859;BME280;20156;47.486;12.074;2022-07-17T02:31:19;96215.28;;;14.63;100.00
33859;BME280;20156;47.486;12.074;2022-07-17T02:33:44;96215.03;;;13.85;100.00
33859;BME280;20156;47.486;12.074;2022-07-17T02:36:09;96208.59;;;14.01;100.00
33859;BME280;20156;47.486;12.074;2022-07-17T02:38:35;96219.72;;;14.29;100.00
33859;BME280;20156;47.486;12.074;2022-07-17T02:41:00;96216.47;;;14.40;100.00
33859;BME280;20156;47.486;12.074;2022-07-17T02:43:26;96224.97;;;14.49;100.00
33859;BME280;20156;47.486;12.074;2022-07-17T02:45:51;96223.94;;;14.37;100.00
33859;BME280;20156;47.486;12.074;2022-07-17T02:48:17;96218.06;;;14.41;100.00
33859;BME280;20156;47.486;12.074;2022-07-17T02:50:42;96223.16;;;14.56;100.00
33859;BME280;20156;47.486;12.074;2022-07-17T02:53:07;96226.09;;;14.93;100.00
33859;BME280;20156;47.486;12.074;2022-07-17T02:55:33;96229.56;;;14.60;100.00
33859;BME280;20156;47.486;12.074;2022-07-17T02:57:58;96232.97;;;14.14;100.00
33859;BME280;20156;47.486;12.074;2022-07-17T03:00:24;96229.56;;;14.40;100.00
33859;BME280;20156;47.486;12.074;2022-07-17T03:02:49;96224.72;;;14.11;100.00
33859;BME280;20156;47.486;12.074;2022-07-17T03:05:16;96224.09;;;13.96;100.00
33859;BME280;20156;47.486;12.074;2022-07-17T03:07:42;96235.78;;;14.00;100.00
33859;BME280;20156;47.486;12.074;2022-07-17T03:10:09;96231.81;;;14.63;100.00
33859;BME280;20156;47.486;12.074;2022-07-17T03:12:35;96228.09;;;13.85;100.00
33859;BME280;20156;47.486;12.074;2022-07-17T03:15:00;96224.88;;;13.83;100.00
33859;BME280;20156;47.486;12.074;2022-07-17T03:17:26;96230.94;;;14.03;100.00
33859;BME280;20156;47.486;12.074;2022-07-17T03:19:51;96235.56;;;14.08;100.00
33859;BME280;20156;47.486;12.074;2022-07-17T03:22:17;96235.56;;;14.08;100.00
33859;BME280;20156;47.486;12.074;2022-07-17T03:24:42;96242.50;;;14.49;100.00
33859;BME280;20156;47.486;12.074;2022-07-17T03:27:08;96244.06;;;14.23;100.00
33859;BME280;20156;47.486;12.074;2022-07-17T03:29:33;96247.25;;;13.99;100.00
33859;BME280;20156;47.486;12.074;2022-07-17T03:31:59;96253.09;;;13.94;100.00
33859;BME280;20156;47.486;12.074;2022-07-17T03:34:24;96255.00;;;13.72;100.00
33859;BME280;20156;47.486;12.074;2022-07-17T03:36:50;96248.44;;;14.09;100.00
33859;BME280;20156;47.486;12.074;2022-07-17T03:39:15;96248.66;;;13.95;100.00
33859;BME280;20156;47.486;12.074;2022-07-17T03:41:41;96255.22;;;13.71;100.00
33859;BME280;20156;47.486;12.074;2022-07-17T03:44:06;96248.22;;;13.84;100.00
33859;BME280;20156;47.486;12.074;2022-07-17T03:46:32;96251.19;;;13.75;100.00
33859;BME280;20156;47.486;12.074;2022-07-17T03:48:57;96256.91;;;13.98;100.00
33859;BME280;20156;47.486;12.074;2022-07-17T03:51:22;96254.53;;;14.17;100.00
33859;BME280;20156;47.486;12.074;2022-07-17T03:53:48;96257.97;;;14.43;100.00
33859;BME280;20156;47.486;12.074;2022-07-17T03:56:13;96254.59;;;14.63;100.00
33859;BME280;20156;47.486;12.074;2022-07-17T03:58:39;96256.75;;;14.13;100.00
33859;BME280;20156;47.486;12.074;2022-07-17T04:01:04;96263.13;;;13.91;100.00
33859;BME280;20156;47.486;12.074;2022-07-17T04:03:30;96267.53;;;13.83;100.00
33859;BME280;20156;47.486;12.074;2022-07-17T04:05:55;96266.97;;;13.95;100.00
33859;BME280;20156;47.486;12.074;2022-07-17T04:08:21;96271.81;;;13.98;100.00
33859;BME280;20156;47.486;12.074;2022-07-17T04:10:47;96266.53;;;13.84;100.00
33859;BME280;20156;47.486;12.074;2022-07-17T04:13:12;96261.75;;;14.01;100.00
33859;BME280;20156;47.486;12.074;2022-07-17T04:15:38;96257.91;;;13.97;100.00
33859;BME280;20156;47.486;12.074;2022-07-17T04:18:23;96255.63;;;13.74;100.00
33859;BME280;20156;47.486;12.074;2022-07-17T04:20:50;96252.06;;;13.95;100.00
33859;BME280;20156;47.486;12.074;2022-07-17T04:23:16;96257.72;;;14.05;100.00
33859;BME280;20156;47.486;12.074;2022-07-17T04:25:42;96255.94;;;14.32;100.00
33859;BME280;20156;47.486;12.074;2022-07-17T04:28:08;96253.94;;;14.41;100.00
33859;BME280;20156;47.486;12.074;2022-07-17T04:30:34;96262.16;;;14.25;100.00
33859;BME280;20156;47.486;12.074;2022-07-17T04:32:59;96262.00;;;14.33;100.00
33859;BME280;20156;47.486;12.074;2022-07-17T04:35:25;96258.34;;;14.14;100.00
33859;BME280;20156;47.486;12.074;2022-07-17T04:37:51;96264.84;;;14.44;100.00
33859;BME280;20156;47.486;12.074;2022-07-17T04:40:17;96260.44;;;14.45;100.00
33859;BME280;20156;47.486;12.074;2022-07-17T04:42:42;96261.78;;;14.41;100.00
33859;BME280;20156;47.486;12.074;2022-07-17T04:45:08;96266.47;;;14.46;100.00
33859;BME280;20156;47.486;12.074;2022-07-17T04:47:34;96266.25;;;14.47;100.00
33859;BME280;20156;47.486;12.074;2022-07-17T04:50:01;96266.84;;;14.75;100.00
33859;BME280;20156;47.486;12.074;2022-07-17T04:52:26;96270.63;;;15.06;100.00
33859;BME280;20156;47.486;12.074;2022-07-17T04:54:51;96266.00;;;15.08;100.00
33859;BME280;20156;47.486;12.074;2022-07-17T04:57:17;96266.38;;;15.18;100.00
33859;BME280;20156;47.486;12.074;2022-07-17T04:59:42;96266.22;;;15.00;100.00
33859;BME280;20156;47.486;12.074;2022-07-17T05:02:08;96254.13;;;15.12;100.00
33859;BME280;20156;47.486;12.074;2022-07-17T05:04:33;96254.91;;;15.13;100.00
33859;BME280;20156;47.486;12.074;2022-07-17T05:06:59;96252.31;;;15.71;100.00
33859;BME280;20156;47.486;12.074;2022-07-17T05:09:24;96262.13;;;15.88;100.00
33859;BME280;20156;47.486;12.074;2022-07-17T05:11:50;96250.25;;;16.17;100.00
33859;BME280;20156;47.486;12.074;2022-07-17T05:14:16;96256.25;;;16.24;100.00
33859;BME280;20156;47.486;12.074;2022-07-17T05:16:41;96261.63;;;16.36;100.00
33859;BME280;20156;47.486;12.074;2022-07-17T05:19:06;96262.59;;;16.42;100.00
33859;BME280;20156;47.486;12.074;2022-07-17T05:21:32;96261.00;;;16.66;100.00
33859;BME280;20156;47.486;12.074;2022-07-17T05:23:57;96255.84;;;16.52;100.00
33859;BME280;20156;47.486;12.074;2022-07-17T05:26:23;96253.00;;;16.54;100.00
33859;BME280;20156;47.486;12.074;2022-07-17T05:28:49;96262.34;;;16.75;100.00
33859;BME280;20156;47.486;12.074;2022-07-17T05:31:14;96262.13;;;16.76;100.00
33859;BME280;20156;47.486;12.074;2022-07-17T05:33:39;96258.59;;;16.89;100.00
33859;BME280;20156;47.486;12.074;2022-07-17T05:36:05;96261.00;;;16.91;100.00
33859;BME280;20156;47.486;12.074;2022-07-17T05:38:30;96250.38;;;17.22;100.00
33859;BME280;20156;47.486;12.074;2022-07-17T05:40:56;96251.03;;;17.18;100.00
33859;BME280;20156;47.486;12.074;2022-07-17T05:43:21;96251.31;;;17.28;100.00
33859;BME280;20156;47.486;12.074;2022-07-17T05:45:47;96248.78;;;17.21;100.00
33859;BME280;20156;47.486;12.074;2022-07-17T05:48:12;96251.50;;;17.33;100.00
33859;BME280;20156;47.486;12.074;2022-07-17T05:50:37;96250.38;;;17.40;100.00
33859;BME280;20156;47.486;12.074;2022-07-17T05:53:03;96252.88;;;17.35;100.00
33859;BME280;20156;47.486;12.074;2022-07-17T05:55:28;96259.50;;;17.56;100.00
33859;BME280;20156;47.486;12.074;2022-07-17T05:57:54;96249.34;;;17.60;100.00
33859;BME280;20156;47.486;12.074;2022-07-17T06:00:19;96246.81;;;17.71;100.00
33859;BME280;20156;47.486;12.074;2022-07-17T06:02:45;96252.53;;;17.80;100.00
33859;BME280;20156;47.486;12.074;2022-07-17T06:05:11;96250.16;;;18.09;100.00
33859;BME280;20156;47.486;12.074;2022-07-17T06:07:37;96254.44;;;18.21;100.00
33859;BME280;20156;47.486;12.074;2022-07-17T06:10:03;96251.75;;;18.10;100.00
33859;BME280;20156;47.486;12.074;2022-07-17T06:12:29;96255.38;;;18.39;100.00
33859;BME280;20156;47.486;12.074;2022-07-17T06:14:54;96259.53;;;18.58;100.00
33859;BME280;20156;47.486;12.074;2022-07-17T06:17:19;96253.09;;;18.42;100.00
33859;BME280;20156;47.486;12.074;2022-07-17T06:19:45;96254.63;;;18.50;100.00
33859;BME280;20156;47.486;12.074;2022-07-17T06:22:10;96255.88;;;18.59;100.00
33859;BME280;20156;47.486;12.074;2022-07-17T06:24:36;96258.22;;;18.90;100.00
33859;BME280;20156;47.486;12.074;2022-07-17T06:27:01;96257.25;;;18.61;100.00
33859;BME280;20156;47.486;12.074;2022-07-17T06:29:27;96248.13;;;18.76;100.00
33859;BME280;20156;47.486;12.074;2022-07-17T06:31:52;96245.63;;;19.04;100.00
33859;BME280;20156;47.486;12.074;2022-07-17T06:34:17;96236.09;;;19.03;100.00
33859;BME280;20156;47.486;12.074;2022-07-17T06:36:43;96227.47;;;19.19;100.00
33859;BME280;20156;47.486;12.074;2022-07-17T06:39:08;96222.91;;;19.03;100.00
33859;BME280;20156;47.486;12.074;2022-07-17T06:41:34;96223.88;;;19.37;100.00
33859;BME280;20156;47.486;12.074;2022-07-17T06:43:59;96222.94;;;19.43;100.00
33859;BME280;20156;47.486;12.074;2022-07-17T06:46:24;96217.97;;;19.70;100.00
33859;BME280;20156;47.486;12.074;2022-07-17T06:48:50;96216.25;;;19.93;100.00
33859;BME280;20156;47.486;12.074;2022-07-17T06:51:17;96213.16;;;20.12;100.00
33859;BME280;20156;47.486;12.074;2022-07-17T06:53:42;96205.75;;;20.26;100.00
33859;BME280;20156;47.486;12.074;2022-07-17T06:56:08;96210.28;;;20.42;100.00
33859;BME280;20156;47.486;12.074;2022-07-17T06:58:34;96214.38;;;20.50;100.00
33859;BME280;20156;47.486;12.074;2022-07-17T07:01:00;96212.91;;;20.59;100.00
33859;BME280;20156;47.486;12.074;2022-07-17T07:03:25;96214.44;;;20.72;100.00
33859;BME280;20156;47.486;12.074;2022-07-17T07:05:51;96214.38;;;20.67;100.00
33859;BME280;20156;47.486;12.074;2022-07-17T07:08:16;96210.81;;;20.78;100.00
33859;BME280;20156;47.486;12.074;2022-07-17T07:10:42;96211.59;;;20.95;100.00
33859;BME280;20156;47.486;12.074;2022-07-17T07:13:08;96194.25;;;21.05;100.00
33859;BME280;20156;47.486;12.074;2022-07-17T07:15:34;96199.06;;;21.08;100.00
33859;BME280;20156;47.486;12.074;2022-07-17T07:17:59;96197.16;;;21.03;100.00
33859;BME280;20156;47.486;12.074;2022-07-17T07:20:25;96191.66;;;21.26;100.00
33859;BME280;20156;47.486;12.074;2022-07-17T07:22:50;96191.16;;;21.29;100.00
33859;BME280;20156;47.486;12.074;2022-07-17T07:25:16;96186.19;;;21.16;100.00
33859;BME280;20156;47.486;12.074;2022-07-17T07:27:41;96187.78;;;21.56;100.00
33859;BME280;20156;47.486;12.074;2022-07-17T07:30:07;96188.63;;;21.61;100.00
33859;BME280;20156;47.486;12.074;2022-07-17T07:32:35;96178.94;;;21.72;100.00
33859;BME280;20156;47.486;12.074;2022-07-17T07:35:01;96182.25;;;21.84;100.00
33859;BME280;20156;47.486;12.074;2022-07-17T07:37:26;96183.63;;;21.92;100.00
33859;BME280;20156;47.486;12.074;2022-07-17T07:39:52;96178.00;;;22.10;100.00
33859;BME280;20156;47.486;12.074;2022-07-17T07:42:17;96182.50;;;22.42;100.00
33859;BME280;20156;47.486;12.074;2022-07-17T07:44:42;96181.28;;;22.17;100.00
33859;BME280;20156;47.486;12.074;2022-07-17T07:47:08;96183.41;;;22.20;100.00
33859;BME280;20156;47.486;12.074;2022-07-17T07:49:33;96177.31;;;22.52;100.00
33859;BME280;20156;47.486;12.074;2022-07-17T07:51:59;96178.13;;;22.58;100.00
33859;BME280;20156;47.486;12.074;2022-07-17T07:54:24;96173.47;;;22.75;100.00
33859;BME280;20156;47.486;12.074;2022-07-17T07:56:49;96168.56;;;22.57;100.00
33859;BME280;20156;47.486;12.074;2022-07-17T07:59:15;96173.75;;;22.78;100.00
33859;BME280;20156;47.486;12.074;2022-07-17T08:01:40;96170.13;;;22.90;100.00
33859;BME280;20156;47.486;12.074;2022-07-17T08:04:06;96180.59;;;23.06;100.00
33859;BME280;20156;47.486;12.074;2022-07-17T08:06:31;96178.34;;;22.88;100.00
33859;BME280;20156;47.486;12.074;2022-07-17T08:08:56;96178.38;;;22.93;100.00
33859;BME280;20156;47.486;12.074;2022-07-17T08:11:22;96179.72;;;22.96;100.00
33859;BME280;20156;47.486;12.074;2022-07-17T08:13:47;96178.25;;;23.20;100.00
33859;BME280;20156;47.486;12.074;2022-07-17T08:16:13;96176.69;;;23.24;100.00
33859;BME280;20156;47.486;12.074;2022-07-17T08:18:38;96181.28;;;23.49;100.00
33859;BME280;20156;47.486;12.074;2022-07-17T08:21:03;96186.84;;;23.48;100.00
33859;BME280;20156;47.486;12.074;2022-07-17T08:23:30;96178.25;;;23.88;100.00
33859;BME280;20156;47.486;12.074;2022-07-17T08:25:55;96179.84;;;23.89;100.00
33859;BME280;20156;47.486;12.074;2022-07-17T08:28:21;96175.25;;;23.59;100.00
33859;BME280;20156;47.486;12.074;2022-07-17T08:30:46;96174.81;;;23.25;100.00
33859;BME280;20156;47.486;12.074;2022-07-17T08:33:12;96172.88;;;22.31;100.00
33859;BME280;20156;47.486;12.074;2022-07-17T08:35:39;96177.66;;;22.02;100.00
33859;BME280;20156;47.486;12.074;2022-07-17T08:38:05;96175.97;;;22.87;100.00
33859;BME280;20156;47.486;12.074;2022-07-17T08:40:32;96174.31;;;23.33;100.00
33859;BME280;20156;47.486;12.074;2022-07-17T08:42:59;96168.44;;;22.36;100.00
33859;BME280;20156;47.486;12.074;2022-07-17T08:45:26;96177.81;;;23.44;100.00
33859;BME280;20156;47.486;12.074;2022-07-17T08:47:52;96180.94;;;23.25;100.00
33859;BME280;20156;47.486;12.074;2022-07-17T08:50:23;96178.81;;;23.32;100.00
33859;BME280;20156;47.486;12.074;2022-07-17T08:52:49;96181.16;;;24.01;100.00
33859;BME280;20156;47.486;12.074;2022-07-17T08:55:14;96175.31;;;23.17;100.00
33859;BME280;20156;47.486;12.074;2022-07-17T08:57:43;96171.81;;;23.68;100.00
33859;BME280;20156;47.486;12.074;2022-07-17T09:00:10;96164.47;;;24.57;100.00
33859;BME280;20156;47.486;12.074;2022-07-17T09:02:40;96169.53;;;24.58;100.00
33859;BME280;20156;47.486;12.074;2022-07-17T09:05:20;96172.84;;;23.67;100.00
33859;BME280;20156;47.486;12.074;2022-07-17T09:07:46;96166.38;;;23.43;100.00
33859;BME280;20156;47.486;12.074;2022-07-17T09:10:13;96158.34;;;24.31;100.00
33859;BME280;20156;47.486;12.074;2022-07-17T09:12:38;96151.53;;;25.25;100.00
33859;BME280;20156;47.486;12.074;2022-07-17T09:15:15;96157.81;;;24.44;100.00
33859;BME280;20156;47.486;12.074;2022-07-17T09:17:48;96149.81;;;24.04;100.00
33859;BME280;20156;47.486;12.074;2022-07-17T09:20:13;96157.56;;;24.30;100.00
33859;BME280;20156;47.486;12.074;2022-07-17T09:22:42;96160.75;;;24.58;100.00
33859;BME280;20156;47.486;12.074;2022-07-17T09:25:08;96161.19;;;25.01;100.00
33859;BME280;20156;47.486;12.074;2022-07-17T09:27:33;96147.66;;;26.06;100.00
33859;BME280;20156;47.486;12.074;2022-07-17T09:30:06;96152.34;;;26.19;100.00
33859;BME280;20156;47.486;12.074;2022-07-17T09:32:40;96142.06;;;26.02;100.00
33859;BME280;20156;47.486;12.074;2022-07-17T09:35:08;96150.00;;;26.13;100.00
33859;BME280;20156;47.486;12.074;2022-07-17T09:37:36;96159.34;;;25.06;100.00
33859;BME280;20156;47.486;12.074;2022-07-17T09:40:08;96155.59;;;25.67;100.00
33859;BME280;20156;47.486;12.074;2022-07-17T09:42:55;96160.72;;;25.58;100.00
33859;BME280;20156;47.486;12.074;2022-07-17T09:45:20;96142.63;;;24.09;100.00
33859;BME280;20156;47.486;12.074;2022-07-17T09:47:46;96149.78;;;23.93;100.00
33859;BME280;20156;47.486;12.074;2022-07-17T09:50:12;96137.63;;;25.33;100.00
33859;BME280;20156;47.486;12.074;2022-07-17T09:52:37;96148.88;;;26.53;100.00
33859;BME280;20156;47.486;12.074;2022-07-17T09:55:04;96151.09;;;26.75;100.00
33859;BME280;20156;47.486;12.074;2022-07-17T09:57:31;96147.56;;;27.08;100.00
33859;BME280;20156;47.486;12.074;2022-07-17T10:00:08;96153.97;;;26.54;83.51
33859;BME280;20156;47.486;12.074;2022-07-17T10:02:44;96150.00;;;25.68;82.52
33859;BME280;20156;47.486;12.074;2022-07-17T10:05:11;96142.84;;;26.03;90.37
33859;BME280;20156;47.486;12.074;2022-07-17T10:07:44;96151.00;;;25.83;82.65
33859;BME280;20156;47.486;12.074;2022-07-17T10:10:11;96146.19;;;26.24;87.65
33859;BME280;20156;47.486;12.074;2022-07-17T10:12:42;96150.63;;;25.99;81.98
33859;BME280;20156;47.486;12.074;2022-07-17T10:15:08;96146.97;;;25.85;86.31
33859;BME280;20156;47.486;12.074;2022-07-17T10:17:35;96139.44;;;26.31;88.68
33859;BME280;20156;47.486;12.074;2022-07-17T10:20:00;96148.38;;;25.77;89.33
33859;BME280;20156;47.486;12.074;2022-07-17T10:22:26;96146.97;;;26.24;93.03
33859;BME280;20156;47.486;12.074;2022-07-17T10:24:56;96137.69;;;25.77;90.78
33859;BME280;20156;47.486;12.074;2022-07-17T10:27:29;96149.88;;;26.28;98.38
33859;BME280;20156;47.486;12.074;2022-07-17T10:30:05;96142.34;;;26.40;87.77
33859;BME280;20156;47.486;12.074;2022-07-17T10:32:31;96139.38;;;26.07;84.16
33859;BME280;20156;47.486;12.074;2022-07-17T10:35:04;96138.47;;;26.22;92.04
33859;BME280;20156;47.486;12.074;2022-07-17T10:37:39;96136.38;;;26.48;94.28
33859;BME280;20156;47.486;12.074;2022-07-17T10:40:25;96136.31;;;26.53;95.88
33859;BME280;20156;47.486;12.074;2022-07-17T10:42:58;96143.09;;;26.98;95.87
33859;BME280;20156;47.486;12.074;2022-07-17T10:45:45;96134.94;;;26.85;97.81
33859;BME280;20156;47.486;12.074;2022-07-17T10:48:22;96128.59;;;26.52;100.00
33859;BME280;20156;47.486;12.074;2022-07-17T10:50:53;96142.75;;;26.52;100.00
33859;BME280;20156;47.486;12.074;2022-07-17T10:53:24;96133.47;;;26.74;100.00
33859;BME280;20156;47.486;12.074;2022-07-17T11:03:52;96119.22;;;26.83;100.00
33859;BME280;20156;47.486;12.074;2022-07-17T11:06:29;96116.16;;;26.71;99.92
33859;BME280;20156;47.486;12.074;2022-07-17T11:08:58;96114.66;;;26.60;96.69
33859;BME280;20156;47.486;12.074;2022-07-17T11:11:41;96119.97;;;26.89;94.22
33859;BME280;20156;47.486;12.074;2022-07-17T11:16:34;96127.22;;;26.83;88.20
33859;BME280;20156;47.486;12.074;2022-07-17T11:18:59;96126.22;;;27.27;87.07
33859;BME280;20156;47.486;12.074;2022-07-17T11:21:25;96123.88;;;27.20;83.76
33859;BME280;20156;47.486;12.074;2022-07-17T11:23:52;96119.00;;;27.27;86.52
33859;BME280;20156;47.486;12.074;2022-07-17T11:26:18;96110.78;;;27.43;88.80
33859;BME280;20156;47.486;12.074;2022-07-17T11:28:45;96116.50;;;26.88;86.83
33859;BME280;20156;47.486;12.074;2022-07-17T11:31:22;96119.19;;;27.12;85.41
33859;BME280;20156;47.486;12.074;2022-07-17T11:36:32;96101.13;;;27.84;81.93
33859;BME280;20156;47.486;12.074;2022-07-17T11:39:00;96097.84;;;27.87;84.60
33859;BME280;20156;47.486;12.074;2022-07-17T11:41:40;96102.38;;;27.73;82.38
33859;BME280;20156;47.486;12.074;2022-07-17T11:44:08;96099.44;;;27.51;83.49
33859;BME280;20156;47.486;12.074;2022-07-17T11:46:36;96091.91;;;28.09;80.40
33859;BME280;20156;47.486;12.074;2022-07-17T11:49:03;96090.63;;;27.69;86.33
33859;BME280;20156;47.486;12.074;2022-07-17T11:54:05;96092.16;;;27.75;85.82
33859;BME280;20156;47.486;12.074;2022-07-17T11:56:31;96086.50;;;27.96;87.87
33859;BME280;20156;47.486;12.074;2022-07-17T11:58:56;96091.88;;;27.77;77.54
33859;BME280;20156;47.486;12.074;2022-07-17T12:01:22;96083.94;;;27.10;86.88
33859;BME280;20156;47.486;12.074;2022-07-17T12:03:58;96076.63;;;27.77;87.56
33859;BME280;20156;47.486;12.074;2022-07-17T12:06:25;96075.75;;;27.63;79.01
33859;BME280;20156;47.486;12.074;2022-07-17T12:08:52;96076.59;;;26.97;81.27
33859;BME280;20156;47.486;12.074;2022-07-17T12:11:17;96091.38;;;27.13;80.06
33859;BME280;20156;47.486;12.074;2022-07-17T12:13:45;96073.06;;;27.44;81.60
33859;BME280;20156;47.486;12.074;2022-07-17T12:16:27;96065.13;;;28.09;80.74
33859;BME280;20156;47.486;12.074;2022-07-17T12:19:10;96073.03;;;28.01;77.41
33859;BME280;20156;47.486;12.074;2022-07-17T12:22:05;96073.66;;;27.79;79.10
33859;BME280;20156;47.486;12.074;2022-07-17T12:24:33;96069.59;;;27.81;76.95
33859;BME280;20156;47.486;12.074;2022-07-17T12:27:00;96062.78;;;28.68;77.91
33859;BME280;20156;47.486;12.074;2022-07-17T12:29:26;96057.75;;;28.01;78.09
33859;BME280;20156;47.486;12.074;2022-07-17T12:32:12;96066.00;;;28.37;76.85
33859;BME280;20156;47.486;12.074;2022-07-17T12:34:47;96062.84;;;28.35;77.03
33859;BME280;20156;47.486;12.074;2022-07-17T12:37:13;96055.09;;;28.01;76.06
33859;BME280;20156;47.486;12.074;2022-07-17T12:39:39;96059.78;;;28.69;75.57
33859;BME280;20156;47.486;12.074;2022-07-17T12:42:04;96058.41;;;28.58;75.77
33859;BME280;20156;47.486;12.074;2022-07-17T12:44:30;96054.13;;;28.11;73.52
33859;BME280;20156;47.486;12.074;2022-07-17T12:46:55;96049.88;;;28.42;78.43
33859;BME280;20156;47.486;12.074;2022-07-17T12:49:21;96047.47;;;28.27;78.17
33859;BME280;20156;47.486;12.074;2022-07-17T12:51:49;96056.97;;;28.33;73.72
33859;BME280;20156;47.486;12.074;2022-07-17T12:54:14;96054.63;;;28.13;74.12
33859;BME280;20156;47.486;12.074;2022-07-17T12:56:40;96052.28;;;28.25;76.55
33859;BME280;20156;47.486;12.074;2022-07-17T12:59:05;96039.28;;;28.92;77.15